Airfield :
LOGIN :

Register | Disclaimer

   EN    FR    IT 

 










Legend :    VFR   Marginal VFR   IFR   Intensive IFR   Very Intensive IFR
Visi :
Ceiling :
>= 8 km
>= 3000ft
5 to 8 km
1000 to 3000 ft
1500m to 5 km
500 to 1000 ft
800 to 1500m
200 to 500 ft
< 800m
< 200 ft
Symbols :   Thunderstorms  Fog  Heavy snow  Heavy precipitations  Wind > 20 kt
SIGMETs :     Misc.  Thunderstorms  Icing  Turbulence  Mountain Waves  Volcanic Ashes






- Airport Elevation : 870 ft
- IATA code : ETZ


LFJL - Metz Nancy Lorraine

CURRENT METAR :
  • 092330Z AUTO 30011KT 9999 FEW028 03/02 Q1022 BECMG BKN009

EXPIRED METARs :
  • 092300Z AUTO 31012KT 9999 BKN029 04/02 Q1022 BECMG 4000 BR BKN010
  • 092230Z AUTO 31013KT 9999 BKN030 OVC037 04/02 Q1021 BECMG VRB03KT 4000 BR BKN010
  • 092200Z AUTO 30012KT 9999 OVC032 04/02 Q1020 NOSIG
  • 092130Z AUTO 31016KT 9999 BKN031 04/02 Q1019 NOSIG
  • 092100Z AUTO 30014KT 9999 OVC029 05/02 Q1018 NOSIG

TAF TAF LFJL
Valid from the 10 at 00:00 until the 11 at 00:00 UTC


092300Z 1000/1024 30010KT 9999 BKN045
BECMG 1000/1003 BKN009
BECMG 1003/1006 21003KT 3000 BR
PROB40
TEMPO 1005/1010 0800 FG BKN001
BECMG 1010/1013 9999 NSW FEW010 BKN018
BECMG 1013/1016 CAVOK



MET'MAP, your aeronautical weather chart ! - Copyright ORBIFLY December 2007 - Disclaimer

ORBIFLY MET'MAP TEAM :

Programming & Development : Alexandra Zaïnal
Concept & original design : Baudouin d'Aumeries
Assistance for programming : Marc-Olivier Méhu
Technical & hardware support : Manuel Goepfert

Contact : metmap@orbifly.com




SOURCES & CREDITS :

   NOAA